sensor_id;sensor_type;location;lat;lon;timestamp;temperature;humidity
56729;DHT22;42612;52.232;7.560;2022-12-05T00:04:00;8.30;59.90
56729;DHT22;42612;52.232;7.560;2022-12-05T00:06:28;8.30;60.00
56729;DHT22;42612;52.232;7.560;2022-12-05T00:08:54;8.20;59.90
56729;DHT22;42612;52.232;7.560;2022-12-05T00:11:24;8.30;60.00
56729;DHT22;42612;52.232;7.560;2022-12-05T00:13:53;8.30;60.00
56729;DHT22;42612;52.232;7.560;2022-12-05T00:16:20;8.20;60.00
56729;DHT22;42612;52.232;7.560;2022-12-05T00:18:47;8.20;60.00
56729;DHT22;42612;52.232;7.560;2022-12-05T00:21:14;8.20;60.00
56729;DHT22;42612;52.232;7.560;2022-12-05T00:23:44;8.20;60.10
56729;DHT22;42612;52.232;7.560;2022-12-05T00:26:10;8.20;59.90
56729;DHT22;42612;52.232;7.560;2022-12-05T00:28:36;8.20;60.00
56729;DHT22;42612;52.232;7.560;2022-12-05T00:31:03;8.20;60.10
56729;DHT22;42612;52.232;7.560;2022-12-05T00:33:32;8.20;60.10
56729;DHT22;42612;52.232;7.560;2022-12-05T00:36:02;8.20;60.10
56729;DHT22;42612;52.232;7.560;2022-12-05T00:38:32;8.20;60.10
56729;DHT22;42612;52.232;7.560;2022-12-05T00:41:02;8.20;60.10
56729;DHT22;42612;52.232;7.560;2022-12-05T00:43:28;8.20;60.10
56729;DHT22;42612;52.232;7.560;2022-12-05T00:48:30;8.20;60.10
56729;DHT22;42612;52.232;7.560;2022-12-05T00:50:59;8.20;60.20
56729;DHT22;42612;52.232;7.560;2022-12-05T00:53:26;8.20;60.30
56729;DHT22;42612;52.232;7.560;2022-12-05T00:55:52;8.10;60.20
56729;DHT22;42612;52.232;7.560;2022-12-05T00:58:17;8.20;60.30
56729;DHT22;42612;52.232;7.560;2022-12-05T01:00:43;8.20;60.30
56729;DHT22;42612;52.232;7.560;2022-12-05T01:03:08;8.20;60.30
56729;DHT22;42612;52.232;7.560;2022-12-05T01:05:34;8.20;60.40
56729;DHT22;42612;52.232;7.560;2022-12-05T01:07:59;8.20;60.40
56729;DHT22;42612;52.232;7.560;2022-12-05T01:10:25;8.30;60.30
56729;DHT22;42612;52.232;7.560;2022-12-05T01:12:51;8.30;60.40
56729;DHT22;42612;52.232;7.560;2022-12-05T01:15:16;8.30;60.30
56729;DHT22;42612;52.232;7.560;2022-12-05T01:17:42;8.30;60.30
56729;DHT22;42612;52.232;7.560;2022-12-05T01:20:07;8.30;60.30
56729;DHT22;42612;52.232;7.560;2022-12-05T01:22:33;8.30;60.30
56729;DHT22;42612;52.232;7.560;2022-12-05T01:24:59;8.30;60.30
56729;DHT22;42612;52.232;7.560;2022-12-05T01:27:24;8.30;60.40
56729;DHT22;42612;52.232;7.560;2022-12-05T01:29:50;8.30;60.40
56729;DHT22;42612;52.232;7.560;2022-12-05T01:32:16;8.30;60.40
56729;DHT22;42612;52.232;7.560;2022-12-05T01:34:41;8.30;60.40
56729;DHT22;42612;52.232;7.560;2022-12-05T01:37:07;8.30;60.40
56729;DHT22;42612;52.232;7.560;2022-12-05T01:39:32;8.30;60.40
56729;DHT22;42612;52.232;7.560;2022-12-05T01:41:58;8.40;60.50
56729;DHT22;42612;52.232;7.560;2022-12-05T01:46:50;8.40;60.50
56729;DHT22;42612;52.232;7.560;2022-12-05T01:49:18;8.40;60.40
56729;DHT22;42612;52.232;7.560;2022-12-05T01:52:24;8.40;60.40
56729;DHT22;42612;52.232;7.560;2022-12-05T01:54:51;8.50;60.40
56729;DHT22;42612;52.232;7.560;2022-12-05T01:57:19;8.50;60.30
56729;DHT22;42612;52.232;7.560;2022-12-05T01:59:47;8.50;60.30
56729;DHT22;42612;52.232;7.560;2022-12-05T02:02:14;8.50;60.40
56729;DHT22;42612;52.232;7.560;2022-12-05T02:04:42;8.40;60.30
56729;DHT22;42612;52.232;7.560;2022-12-05T02:07:27;8.40;60.30
56729;DHT22;42612;52.232;7.560;2022-12-05T02:09:53;8.40;60.50
56729;DHT22;42612;52.232;7.560;2022-12-05T02:12:19;8.40;60.40
56729;DHT22;42612;52.232;7.560;2022-12-05T02:14:49;8.40;60.40
56729;DHT22;42612;52.232;7.560;2022-12-05T02:17:22;8.40;60.50
56729;DHT22;42612;52.232;7.560;2022-12-05T02:23:13;8.40;60.50
56729;DHT22;42612;52.232;7.560;2022-12-05T02:29:12;8.40;60.60
56729;DHT22;42612;52.232;7.560;2022-12-05T02:32:03;8.40;60.60
56729;DHT22;42612;52.232;7.560;2022-12-05T02:34:59;8.50;60.60
56729;DHT22;42612;52.232;7.560;2022-12-05T02:37:46;8.50;60.70
56729;DHT22;42612;52.232;7.560;2022-12-05T02:43:05;8.50;60.50
56729;DHT22;42612;52.232;7.560;2022-12-05T02:45:34;8.50;60.60
56729;DHT22;42612;52.232;7.560;2022-12-05T02:48:01;8.50;60.60
56729;DHT22;42612;52.232;7.560;2022-12-05T02:50:30;8.50;60.60
56729;DHT22;42612;52.232;7.560;2022-12-05T02:52:59;8.60;60.70
56729;DHT22;42612;52.232;7.560;2022-12-05T02:55:27;8.60;60.70
56729;DHT22;42612;52.232;7.560;2022-12-05T02:57:56;8.60;60.60
56729;DHT22;42612;52.232;7.560;2022-12-05T03:00:23;8.50;60.60
56729;DHT22;42612;52.232;7.560;2022-12-05T03:02:50;8.60;60.70
56729;DHT22;42612;52.232;7.560;2022-12-05T03:08:11;8.60;60.70
56729;DHT22;42612;52.232;7.560;2022-12-05T03:10:40;8.60;60.70
56729;DHT22;42612;52.232;7.560;2022-12-05T03:13:10;8.60;60.70
56729;DHT22;42612;52.232;7.560;2022-12-05T03:15:44;8.60;61.50
56729;DHT22;42612;52.232;7.560;2022-12-05T03:23:46;8.60;60.80
56729;DHT22;42612;52.232;7.560;2022-12-05T03:32:19;8.70;60.70
56729;DHT22;42612;52.232;7.560;2022-12-05T03:34:48;8.70;60.80
56729;DHT22;42612;52.232;7.560;2022-12-05T03:40:18;8.70;60.70
56729;DHT22;42612;52.232;7.560;2022-12-05T03:48:29;8.70;60.60
56729;DHT22;42612;52.232;7.560;2022-12-05T03:50:56;8.70;60.60
56729;DHT22;42612;52.232;7.560;2022-12-05T03:53:26;8.80;60.60
56729;DHT22;42612;52.232;7.560;2022-12-05T03:56:07;8.80;60.50
56729;DHT22;42612;52.232;7.560;2022-12-05T03:58:38;8.80;60.50
56729;DHT22;42612;52.232;7.560;2022-12-05T04:01:08;8.80;60.50
56729;DHT22;42612;52.232;7.560;2022-12-05T04:03:36;8.80;60.40
56729;DHT22;42612;52.232;7.560;2022-12-05T04:06:07;8.80;60.50
56729;DHT22;42612;52.232;7.560;2022-12-05T04:08:43;8.90;60.50
56729;DHT22;42612;52.232;7.560;2022-12-05T04:11:13;8.90;60.50
56729;DHT22;42612;52.232;7.560;2022-12-05T04:13:54;8.90;60.50
56729;DHT22;42612;52.232;7.560;2022-12-05T04:16:27;8.90;60.40
56729;DHT22;42612;52.232;7.560;2022-12-05T04:19:18;8.90;60.50
56729;DHT22;42612;52.232;7.560;2022-12-05T04:21:49;8.90;60.50
56729;DHT22;42612;52.232;7.560;2022-12-05T04:24:22;8.90;60.40
56729;DHT22;42612;52.232;7.560;2022-12-05T04:27:21;8.90;60.40
56729;DHT22;42612;52.232;7.560;2022-12-05T04:30:08;9.00;60.40
56729;DHT22;42612;52.232;7.560;2022-12-05T04:32:38;8.90;60.40
56729;DHT22;42612;52.232;7.560;2022-12-05T04:35:51;8.90;60.40
56729;DHT22;42612;52.232;7.560;2022-12-05T04:38:09;8.90;60.30
56729;DHT22;42612;52.232;7.560;2022-12-05T04:40:38;9.00;60.50
56729;DHT22;42612;52.232;7.560;2022-12-05T04:43:17;8.90;60.40
56729;DHT22;42612;52.232;7.560;2022-12-05T04:45:46;9.00;60.40
56729;DHT22;42612;52.232;7.560;2022-12-05T04:48:13;9.00;60.40
56729;DHT22;42612;52.232;7.560;2022-12-05T04:50:39;9.00;60.40
56729;DHT22;42612;52.232;7.560;2022-12-05T04:53:06;8.90;60.40
56729;DHT22;42612;52.232;7.560;2022-12-05T04:55:33;9.00;60.40
56729;DHT22;42612;52.232;7.560;2022-12-05T04:58:02;9.00;60.40
56729;DHT22;42612;52.232;7.560;2022-12-05T05:00:30;8.90;60.40
56729;DHT22;42612;52.232;7.560;2022-12-05T05:05:52;9.00;60.40
56729;DHT22;42612;52.232;7.560;2022-12-05T05:08:21;9.00;60.40
56729;DHT22;42612;52.232;7.560;2022-12-05T05:11:01;8.90;60.40
56729;DHT22;42612;52.232;7.560;2022-12-05T05:13:29;9.00;60.40
56729;DHT22;42612;52.232;7.560;2022-12-05T05:15:55;8.90;60.40
56729;DHT22;42612;52.232;7.560;2022-12-05T05:18:20;8.90;60.40
56729;DHT22;42612;52.232;7.560;2022-12-05T05:20:46;8.90;60.40
56729;DHT22;42612;52.232;7.560;2022-12-05T05:23:11;8.90;60.40
56729;DHT22;42612;52.232;7.560;2022-12-05T05:25:38;8.90;60.40
56729;DHT22;42612;52.232;7.560;2022-12-05T05:28:04;8.90;60.50
56729;DHT22;42612;52.232;7.560;2022-12-05T05:30:30;8.90;60.50
56729;DHT22;42612;52.232;7.560;2022-12-05T05:32:57;8.90;60.50
56729;DHT22;42612;52.232;7.560;2022-12-05T05:35:23;8.90;60.60
56729;DHT22;42612;52.232;7.560;2022-12-05T05:37:49;8.90;60.60
56729;DHT22;42612;52.232;7.560;2022-12-05T05:40:15;8.90;60.50
56729;DHT22;42612;52.232;7.560;2022-12-05T05:42:48;8.90;60.50
56729;DHT22;42612;52.232;7.560;2022-12-05T05:45:15;8.90;60.50
56729;DHT22;42612;52.232;7.560;2022-12-05T05:47:41;8.90;60.50
56729;DHT22;42612;52.232;7.560;2022-12-05T05:50:07;8.90;60.50
56729;DHT22;42612;52.232;7.560;2022-12-05T05:52:36;8.90;60.50
56729;DHT22;42612;52.232;7.560;2022-12-05T05:55:03;8.90;60.50
56729;DHT22;42612;52.232;7.560;2022-12-05T05:57:29;8.90;60.50
56729;DHT22;42612;52.232;7.560;2022-12-05T05:59:55;8.90;60.50
56729;DHT22;42612;52.232;7.560;2022-12-05T06:02:21;8.90;60.50
56729;DHT22;42612;52.232;7.560;2022-12-05T06:04:46;8.90;60.50
56729;DHT22;42612;52.232;7.560;2022-12-05T06:07:12;8.90;60.50
56729;DHT22;42612;52.232;7.560;2022-12-05T06:09:38;8.90;60.60
56729;DHT22;42612;52.232;7.560;2022-12-05T06:12:03;8.90;60.60
56729;DHT22;42612;52.232;7.560;2022-12-05T06:14:29;8.90;60.50
56729;DHT22;42612;52.232;7.560;2022-12-05T06:16:55;8.90;60.50
56729;DHT22;42612;52.232;7.560;2022-12-05T06:19:20;8.90;60.60
56729;DHT22;42612;52.232;7.560;2022-12-05T06:21:47;8.90;60.50
56729;DHT22;42612;52.232;7.560;2022-12-05T06:24:14;8.90;60.60
56729;DHT22;42612;52.232;7.560;2022-12-05T06:26:41;8.90;60.60
56729;DHT22;42612;52.232;7.560;2022-12-05T06:29:07;8.90;60.50
56729;DHT22;42612;52.232;7.560;2022-12-05T06:31:33;8.90;60.50
56729;DHT22;42612;52.232;7.560;2022-12-05T06:33:59;8.90;60.60
56729;DHT22;42612;52.232;7.560;2022-12-05T06:36:27;8.90;60.60
56729;DHT22;42612;52.232;7.560;2022-12-05T06:38:55;8.90;60.60
56729;DHT22;42612;52.232;7.560;2022-12-05T06:41:21;8.90;60.60
56729;DHT22;42612;52.232;7.560;2022-12-05T06:43:51;8.90;60.60
56729;DHT22;42612;52.232;7.560;2022-12-05T06:46:18;8.90;60.60
56729;DHT22;42612;52.232;7.560;2022-12-05T06:48:44;8.90;60.60
56729;DHT22;42612;52.232;7.560;2022-12-05T06:51:10;8.80;61.20
56729;DHT22;42612;52.232;7.560;2022-12-05T06:53:37;8.80;60.60
56729;DHT22;42612;52.232;7.560;2022-12-05T06:56:04;8.80;60.60
56729;DHT22;42612;52.232;7.560;2022-12-05T06:58:32;8.80;60.60
56729;DHT22;42612;52.232;7.560;2022-12-05T07:00:58;8.80;60.60
56729;DHT22;42612;52.232;7.560;2022-12-05T07:03:42;8.80;60.70
56729;DHT22;42612;52.232;7.560;2022-12-05T07:06:13;8.80;60.60
56729;DHT22;42612;52.232;7.560;2022-12-05T07:08:38;8.70;60.70
56729;DHT22;42612;52.232;7.560;2022-12-05T07:11:05;8.80;60.80
56729;DHT22;42612;52.232;7.560;2022-12-05T07:13:31;8.70;60.80
56729;DHT22;42612;52.232;7.560;2022-12-05T07:15:57;8.70;60.80
56729;DHT22;42612;52.232;7.560;2022-12-05T07:18:25;8.80;60.90
56729;DHT22;42612;52.232;7.560;2022-12-05T07:20:58;8.70;60.90
56729;DHT22;42612;52.232;7.560;2022-12-05T07:23:25;8.80;60.80
56729;DHT22;42612;52.232;7.560;2022-12-05T07:25:51;8.80;60.90
56729;DHT22;42612;52.232;7.560;2022-12-05T07:28:17;8.80;60.80
56729;DHT22;42612;52.232;7.560;2022-12-05T07:30:43;8.80;60.80
56729;DHT22;42612;52.232;7.560;2022-12-05T07:33:08;8.80;60.80
56729;DHT22;42612;52.232;7.560;2022-12-05T07:35:34;8.80;60.80
56729;DHT22;42612;52.232;7.560;2022-12-05T07:37:59;8.80;60.80
56729;DHT22;42612;52.232;7.560;2022-12-05T07:40:25;8.80;60.80
56729;DHT22;42612;52.232;7.560;2022-12-05T07:42:50;8.80;60.90
56729;DHT22;42612;52.232;7.560;2022-12-05T07:45:20;8.80;60.90
56729;DHT22;42612;52.232;7.560;2022-12-05T07:47:46;8.80;60.90
56729;DHT22;42612;52.232;7.560;2022-12-05T07:50:12;8.90;60.90
56729;DHT22;42612;52.232;7.560;2022-12-05T07:52:38;8.90;61.00
56729;DHT22;42612;52.232;7.560;2022-12-05T07:55:04;8.90;61.00
56729;DHT22;42612;52.232;7.560;2022-12-05T07:57:30;8.90;60.90
56729;DHT22;42612;52.232;7.560;2022-12-05T07:59:56;8.90;61.00
56729;DHT22;42612;52.232;7.560;2022-12-05T08:02:21;8.90;61.00
56729;DHT22;42612;52.232;7.560;2022-12-05T08:04:47;8.90;60.80
56729;DHT22;42612;52.232;7.560;2022-12-05T08:07:13;8.90;60.80
56729;DHT22;42612;52.232;7.560;2022-12-05T08:09:38;8.90;60.80
56729;DHT22;42612;52.232;7.560;2022-12-05T08:12:04;8.90;60.80
56729;DHT22;42612;52.232;7.560;2022-12-05T08:14:30;8.90;60.90
56729;DHT22;42612;52.232;7.560;2022-12-05T08:16:56;8.90;60.90
56729;DHT22;42612;52.232;7.560;2022-12-05T08:19:21;8.90;60.90
56729;DHT22;42612;52.232;7.560;2022-12-05T08:21:47;8.90;60.90
56729;DHT22;42612;52.232;7.560;2022-12-05T08:24:13;9.00;61.00
56729;DHT22;42612;52.232;7.560;2022-12-05T08:26:39;9.00;60.90
56729;DHT22;42612;52.232;7.560;2022-12-05T08:29:09;9.00;61.00
56729;DHT22;42612;52.232;7.560;2022-12-05T08:31:38;9.00;61.00
56729;DHT22;42612;52.232;7.560;2022-12-05T08:34:06;9.00;61.00
56729;DHT22;42612;52.232;7.560;2022-12-05T08:36:31;9.00;61.00
56729;DHT22;42612;52.232;7.560;2022-12-05T08:39:01;9.10;61.00
56729;DHT22;42612;52.232;7.560;2022-12-05T08:41:28;9.00;60.90
56729;DHT22;42612;52.232;7.560;2022-12-05T08:43:55;9.00;60.90
56729;DHT22;42612;52.232;7.560;2022-12-05T08:46:22;9.10;61.00
56729;DHT22;42612;52.232;7.560;2022-12-05T08:48:48;9.10;60.90
56729;DHT22;42612;52.232;7.560;2022-12-05T08:51:13;9.10;60.90
56729;DHT22;42612;52.232;7.560;2022-12-05T08:53:39;9.10;60.90
56729;DHT22;42612;52.232;7.560;2022-12-05T08:56:05;9.10;60.90
56729;DHT22;42612;52.232;7.560;2022-12-05T08:58:32;9.10;60.90
56729;DHT22;42612;52.232;7.560;2022-12-05T09:01:20;9.10;60.90
56729;DHT22;42612;52.232;7.560;2022-12-05T09:03:45;9.10;60.90
56729;DHT22;42612;52.232;7.560;2022-12-05T09:08:41;9.20;61.00
56729;DHT22;42612;52.232;7.560;2022-12-05T09:11:08;9.20;61.00
56729;DHT22;42612;52.232;7.560;2022-12-05T09:13:36;9.20;61.00
56729;DHT22;42612;52.232;7.560;2022-12-05T09:16:06;9.20;61.00
56729;DHT22;42612;52.232;7.560;2022-12-05T09:18:36;9.20;61.00
56729;DHT22;42612;52.232;7.560;2022-12-05T09:21:08;9.20;61.00
56729;DHT22;42612;52.232;7.560;2022-12-05T09:23:35;9.20;60.90
56729;DHT22;42612;52.232;7.560;2022-12-05T09:26:02;9.20;60.90
56729;DHT22;42612;52.232;7.560;2022-12-05T09:28:29;9.20;60.90
56729;DHT22;42612;52.232;7.560;2022-12-05T09:30:59;9.20;60.90
56729;DHT22;42612;52.232;7.560;2022-12-05T09:33:28;9.20;60.90
56729;DHT22;42612;52.232;7.560;2022-12-05T09:35:54;9.20;60.90
56729;DHT22;42612;52.232;7.560;2022-12-05T09:38:20;9.20;60.90
56729;DHT22;42612;52.232;7.560;2022-12-05T09:40:47;9.20;60.90
56729;DHT22;42612;52.232;7.560;2022-12-05T09:43:28;9.30;61.00
56729;DHT22;42612;52.232;7.560;2022-12-05T09:46:09;9.30;61.00
56729;DHT22;42612;52.232;7.560;2022-12-05T09:48:44;9.20;60.90
56729;DHT22;42612;52.232;7.560;2022-12-05T09:51:10;9.30;61.00
56729;DHT22;42612;52.232;7.560;2022-12-05T09:53:37;9.30;61.00
56729;DHT22;42612;52.232;7.560;2022-12-05T10:01:20;9.20;61.60
56729;DHT22;42612;52.232;7.560;2022-12-05T10:06:42;9.30;61.00
56729;DHT22;42612;52.232;7.560;2022-12-05T10:09:28;9.20;60.90
56729;DHT22;42612;52.232;7.560;2022-12-05T10:14:35;9.30;61.00
56729;DHT22;42612;52.232;7.560;2022-12-05T10:17:14;9.30;61.00
56729;DHT22;42612;52.232;7.560;2022-12-05T10:19:45;9.30;61.00
56729;DHT22;42612;52.232;7.560;2022-12-05T10:22:16;9.30;60.90
56729;DHT22;42612;52.232;7.560;2022-12-05T10:25:03;9.30;61.00
56729;DHT22;42612;52.232;7.560;2022-12-05T10:27:31;9.30;60.90
56729;DHT22;42612;52.232;7.560;2022-12-05T10:30:00;9.30;60.90
56729;DHT22;42612;52.232;7.560;2022-12-05T10:32:31;9.30;60.90
56729;DHT22;42612;52.232;7.560;2022-12-05T10:35:11;9.30;61.60
56729;DHT22;42612;52.232;7.560;2022-12-05T10:37:56;9.30;60.90
56729;DHT22;42612;52.232;7.560;2022-12-05T10:40:25;9.30;60.80
56729;DHT22;42612;52.232;7.560;2022-12-05T10:42:52;9.30;60.80
56729;DHT22;42612;52.232;7.560;2022-12-05T10:45:18;9.30;60.80
56729;DHT22;42612;52.232;7.560;2022-12-05T10:47:46;9.20;60.70
56729;DHT22;42612;52.232;7.560;2022-12-05T10:52:54;9.30;60.70
56729;DHT22;42612;52.232;7.560;2022-12-05T10:55:21;9.30;60.70
56729;DHT22;42612;52.232;7.560;2022-12-05T10:57:51;9.20;60.60
56729;DHT22;42612;52.232;7.560;2022-12-05T11:00:37;9.20;60.50
56729;DHT22;42612;52.232;7.560;2022-12-05T11:03:20;9.20;60.40
56729;DHT22;42612;52.232;7.560;2022-12-05T11:05:53;9.20;60.40
56729;DHT22;42612;52.232;7.560;2022-12-05T11:08:22;9.20;60.20
56729;DHT22;42612;52.232;7.560;2022-12-05T11:10:51;9.20;60.20
56729;DHT22;42612;52.232;7.560;2022-12-05T11:13:25;9.20;60.10
56729;DHT22;42612;52.232;7.560;2022-12-05T11:15:51;9.20;60.10
56729;DHT22;42612;52.232;7.560;2022-12-05T11:18:18;9.20;60.00
56729;DHT22;42612;52.232;7.560;2022-12-05T11:20:49;9.10;60.80
56729;DHT22;42612;52.232;7.560;2022-12-05T11:23:19;9.10;60.00
56729;DHT22;42612;52.232;7.560;2022-12-05T11:25:50;9.10;60.00
56729;DHT22;42612;52.232;7.560;2022-12-05T11:30:55;9.10;60.10
56729;DHT22;42612;52.232;7.560;2022-12-05T11:33:44;9.10;60.10
56729;DHT22;42612;52.232;7.560;2022-12-05T11:36:34;9.10;60.20
56729;DHT22;42612;52.232;7.560;2022-12-05T11:39:03;9.10;60.20
56729;DHT22;42612;52.232;7.560;2022-12-05T11:53:09;9.00;60.10
56729;DHT22;42612;52.232;7.560;2022-12-05T11:56:09;9.10;60.10
56729;DHT22;42612;52.232;7.560;2022-12-05T11:58:52;9.00;60.10
56729;DHT22;42612;52.232;7.560;2022-12-05T12:01:36;9.00;60.10
56729;DHT22;42612;52.232;7.560;2022-12-05T12:04:16;9.10;60.00
56729;DHT22;42612;52.232;7.560;2022-12-05T12:09:30;9.00;60.00
56729;DHT22;42612;52.232;7.560;2022-12-05T12:14:44;9.00;60.00
56729;DHT22;42612;52.232;7.560;2022-12-05T12:22:44;9.00;60.10
56729;DHT22;42612;52.232;7.560;2022-12-05T12:25:44;9.00;60.00
56729;DHT22;42612;52.232;7.560;2022-12-05T12:33:40;9.00;60.00
56729;DHT22;42612;52.232;7.560;2022-12-05T12:36:23;9.10;60.00
56729;DHT22;42612;52.232;7.560;2022-12-05T12:41:47;9.00;60.00
56729;DHT22;42612;52.232;7.560;2022-12-05T12:44:41;9.00;60.00
56729;DHT22;42612;52.232;7.560;2022-12-05T12:49:49;9.10;60.10
56729;DHT22;42612;52.232;7.560;2022-12-05T13:04:10;9.00;60.10
56729;DHT22;42612;52.232;7.560;2022-12-05T13:12:15;9.00;60.10
56729;DHT22;42612;52.232;7.560;2022-12-05T13:14:48;9.00;60.00
56729;DHT22;42612;52.232;7.560;2022-12-05T13:17:21;9.00;60.70
56729;DHT22;42612;52.232;7.560;2022-12-05T13:19:48;9.00;60.00
56729;DHT22;42612;52.232;7.560;2022-12-05T13:22:15;9.00;60.00
56729;DHT22;42612;52.232;7.560;2022-12-05T13:24:43;9.00;60.00
56729;DHT22;42612;52.232;7.560;2022-12-05T13:27:16;9.00;60.00
56729;DHT22;42612;52.232;7.560;2022-12-05T13:29:50;8.90;60.00
56729;DHT22;42612;52.232;7.560;2022-12-05T13:34:55;8.90;60.10
56729;DHT22;42612;52.232;7.560;2022-12-05T13:37:43;8.90;60.10
56729;DHT22;42612;52.232;7.560;2022-12-05T13:40:32;8.90;60.20
56729;DHT22;42612;52.232;7.560;2022-12-05T13:43:19;8.90;60.20
56729;DHT22;42612;52.232;7.560;2022-12-05T13:45:53;8.90;60.20
56729;DHT22;42612;52.232;7.560;2022-12-05T13:48:25;8.90;60.20
56729;DHT22;42612;52.232;7.560;2022-12-05T13:50:56;8.90;60.30
56729;DHT22;42612;52.232;7.560;2022-12-05T13:53:38;8.90;60.30
56729;DHT22;42612;52.232;7.560;2022-12-05T13:56:21;8.90;60.30
56729;DHT22;42612;52.232;7.560;2022-12-05T13:58:50;8.90;60.40
56729;DHT22;42612;52.232;7.560;2022-12-05T14:04:21;8.90;60.40
56729;DHT22;42612;52.232;7.560;2022-12-05T14:07:07;8.90;60.40
56729;DHT22;42612;52.232;7.560;2022-12-05T14:09:47;8.90;60.50
56729;DHT22;42612;52.232;7.560;2022-12-05T14:17:22;8.90;60.40
56729;DHT22;42612;52.232;7.560;2022-12-05T14:22:27;9.00;60.50
56729;DHT22;42612;52.232;7.560;2022-12-05T14:25:08;9.00;60.50
56729;DHT22;42612;52.232;7.560;2022-12-05T14:27:44;9.00;60.50
56729;DHT22;42612;52.232;7.560;2022-12-05T14:32:47;9.00;60.50
56729;DHT22;42612;52.232;7.560;2022-12-05T14:35:30;9.00;60.50
56729;DHT22;42612;52.232;7.560;2022-12-05T14:38:05;9.00;60.40
56729;DHT22;42612;52.232;7.560;2022-12-05T14:43:16;9.00;60.40
56729;DHT22;42612;52.232;7.560;2022-12-05T14:55:43;9.00;60.50
56729;DHT22;42612;52.232;7.560;2022-12-05T14:58:15;9.00;60.50
56729;DHT22;42612;52.232;7.560;2022-12-05T15:00:53;9.00;60.50
56729;DHT22;42612;52.232;7.560;2022-12-05T15:03:28;9.10;60.50
56729;DHT22;42612;52.232;7.560;2022-12-05T15:05:56;9.10;60.50
56729;DHT22;42612;52.232;7.560;2022-12-05T15:08:22;9.10;60.60
56729;DHT22;42612;52.232;7.560;2022-12-05T15:10:49;9.00;60.50
56729;DHT22;42612;52.232;7.560;2022-12-05T15:13:16;9.00;60.50
56729;DHT22;42612;52.232;7.560;2022-12-05T15:15:49;9.10;60.60
56729;DHT22;42612;52.232;7.560;2022-12-05T15:18:22;9.10;60.60
56729;DHT22;42612;52.232;7.560;2022-12-05T15:20:57;9.00;60.50
56729;DHT22;42612;52.232;7.560;2022-12-05T15:26:05;9.00;60.50
56729;DHT22;42612;52.232;7.560;2022-12-05T15:28:36;9.10;60.50
56729;DHT22;42612;52.232;7.560;2022-12-05T15:31:01;9.00;60.50
56729;DHT22;42612;52.232;7.560;2022-12-05T15:33:27;9.10;60.60
56729;DHT22;42612;52.232;7.560;2022-12-05T15:35:53;9.00;60.60
56729;DHT22;42612;52.232;7.560;2022-12-05T15:38:23;9.00;60.60
56729;DHT22;42612;52.232;7.560;2022-12-05T15:40:51;9.00;60.70
56729;DHT22;42612;52.232;7.560;2022-12-05T15:43:27;9.00;60.70
56729;DHT22;42612;52.232;7.560;2022-12-05T15:48:56;9.10;60.70
56729;DHT22;42612;52.232;7.560;2022-12-05T15:51:36;9.10;60.80
56729;DHT22;42612;52.232;7.560;2022-12-05T15:54:13;9.00;60.70
56729;DHT22;42612;52.232;7.560;2022-12-05T15:59:16;9.10;60.80
56729;DHT22;42612;52.232;7.560;2022-12-05T16:01:46;9.10;60.80
56729;DHT22;42612;52.232;7.560;2022-12-05T16:06:55;9.00;61.40
56729;DHT22;42612;52.232;7.560;2022-12-05T16:09:29;9.10;60.80
56729;DHT22;42612;52.232;7.560;2022-12-05T16:12:00;9.00;60.70
56729;DHT22;42612;52.232;7.560;2022-12-05T16:14:34;9.10;60.70
56729;DHT22;42612;52.232;7.560;2022-12-05T16:17:02;9.00;60.60
56729;DHT22;42612;52.232;7.560;2022-12-05T16:19:29;9.10;60.70
56729;DHT22;42612;52.232;7.560;2022-12-05T16:22:05;9.10;60.70
56729;DHT22;42612;52.232;7.560;2022-12-05T16:24:38;9.10;60.70
56729;DHT22;42612;52.232;7.560;2022-12-05T16:27:12;9.00;60.60
56729;DHT22;42612;52.232;7.560;2022-12-05T16:29:39;9.00;60.60
56729;DHT22;42612;52.232;7.560;2022-12-05T16:32:13;9.00;60.60
56729;DHT22;42612;52.232;7.560;2022-12-05T16:34:46;9.00;60.60
56729;DHT22;42612;52.232;7.560;2022-12-05T16:37:25;9.00;60.60
56729;DHT22;42612;52.232;7.560;2022-12-05T16:39:51;9.00;60.60
56729;DHT22;42612;52.232;7.560;2022-12-05T16:42:24;9.00;60.60
56729;DHT22;42612;52.232;7.560;2022-12-05T16:44:55;9.00;60.70
56729;DHT22;42612;52.232;7.560;2022-12-05T16:50:22;9.00;60.70
56729;DHT22;42612;52.232;7.560;2022-12-05T16:52:50;9.00;60.70
56729;DHT22;42612;52.232;7.560;2022-12-05T16:55:35;9.00;60.70
56729;DHT22;42612;52.232;7.560;2022-12-05T16:58:02;9.00;60.70
56729;DHT22;42612;52.232;7.560;2022-12-05T17:00:28;9.00;60.70
56729;DHT22;42612;52.232;7.560;2022-12-05T17:02:56;9.00;60.70
56729;DHT22;42612;52.232;7.560;2022-12-05T17:05:22;9.00;60.60
56729;DHT22;42612;52.232;7.560;2022-12-05T17:07:49;9.00;60.60
56729;DHT22;42612;52.232;7.560;2022-12-05T17:10:14;8.90;60.60
56729;DHT22;42612;52.232;7.560;2022-12-05T17:12:40;9.00;60.70
56729;DHT22;42612;52.232;7.560;2022-12-05T17:15:12;9.00;60.70
56729;DHT22;42612;52.232;7.560;2022-12-05T17:17:40;9.00;60.70
56729;DHT22;42612;52.232;7.560;2022-12-05T17:20:06;9.00;60.80
56729;DHT22;42612;52.232;7.560;2022-12-05T17:22:32;9.00;60.80
56729;DHT22;42612;52.232;7.560;2022-12-05T17:24:57;9.00;60.80
56729;DHT22;42612;52.232;7.560;2022-12-05T17:27:24;9.00;60.70
56729;DHT22;42612;52.232;7.560;2022-12-05T17:29:50;9.00;60.80
56729;DHT22;42612;52.232;7.560;2022-12-05T17:32:16;9.00;60.80
56729;DHT22;42612;52.232;7.560;2022-12-05T17:34:41;9.00;60.80
56729;DHT22;42612;52.232;7.560;2022-12-05T17:37:07;9.00;60.80
56729;DHT22;42612;52.232;7.560;2022-12-05T17:39:33;9.10;60.80
56729;DHT22;42612;52.232;7.560;2022-12-05T17:41:58;9.00;60.80
56729;DHT22;42612;52.232;7.560;2022-12-05T17:44:24;9.00;60.70
56729;DHT22;42612;52.232;7.560;2022-12-05T17:46:49;9.00;60.70
56729;DHT22;42612;52.232;7.560;2022-12-05T17:49:15;9.10;60.80
56729;DHT22;42612;52.232;7.560;2022-12-05T17:51:42;9.10;60.80
56729;DHT22;42612;52.232;7.560;2022-12-05T17:54:07;9.00;60.80
56729;DHT22;42612;52.232;7.560;2022-12-05T17:56:33;9.00;60.80
56729;DHT22;42612;52.232;7.560;2022-12-05T17:58:59;9.10;60.80
56729;DHT22;42612;52.232;7.560;2022-12-05T18:01:25;9.10;60.80
56729;DHT22;42612;52.232;7.560;2022-12-05T18:03:50;9.10;60.80
56729;DHT22;42612;52.232;7.560;2022-12-05T18:06:16;9.10;60.80
56729;DHT22;42612;52.232;7.560;2022-12-05T18:08:42;9.10;60.90
56729;DHT22;42612;52.232;7.560;2022-12-05T18:11:09;9.10;60.80
56729;DHT22;42612;52.232;7.560;2022-12-05T18:13:36;9.10;60.90
56729;DHT22;42612;52.232;7.560;2022-12-05T18:16:02;9.10;60.80
56729;DHT22;42612;52.232;7.560;2022-12-05T18:18:28;9.10;60.80
56729;DHT22;42612;52.232;7.560;2022-12-05T18:21:03;9.10;60.80
56729;DHT22;42612;52.232;7.560;2022-12-05T18:23:29;9.10;60.90
56729;DHT22;42612;52.232;7.560;2022-12-05T18:25:55;9.10;60.90
56729;DHT22;42612;52.232;7.560;2022-12-05T18:28:24;9.10;60.90
56729;DHT22;42612;52.232;7.560;2022-12-05T18:30:50;9.10;60.90
56729;DHT22;42612;52.232;7.560;2022-12-05T18:33:15;9.10;61.00
56729;DHT22;42612;52.232;7.560;2022-12-05T18:35:41;9.10;61.00
56729;DHT22;42612;52.232;7.560;2022-12-05T18:38:10;9.10;60.90